createdAt,value
2023-04-19T00:01:48.705Z,5.30
2023-04-19T00:04:17.018Z,5.17
2023-04-19T00:06:46.412Z,4.83
2023-04-19T00:09:14.354Z,4.97
2023-04-19T00:11:43.916Z,4.70
2023-04-19T00:14:11.726Z,5.20
2023-04-19T00:16:39.702Z,5.00
2023-04-19T00:19:08.344Z,5.00
2023-04-19T00:21:36.152Z,4.60
2023-04-19T00:24:04.259Z,5.30
2023-04-19T00:26:32.133Z,4.53
2023-04-19T00:29:02.042Z,4.70
2023-04-19T00:31:32.843Z,4.50
2023-04-19T00:34:00.770Z,5.10
2023-04-19T00:36:29.320Z,4.63
2023-04-19T00:38:57.320Z,4.43
2023-04-19T00:41:25.289Z,4.90
2023-04-19T00:43:53.157Z,4.90
2023-04-19T00:46:23.063Z,4.63
2023-04-19T00:48:51.637Z,4.73
2023-04-19T00:51:19.618Z,4.10
2023-04-19T00:53:47.590Z,4.80
2023-04-19T00:56:15.749Z,4.50
2023-04-19T00:58:43.642Z,4.60
2023-04-19T01:01:11.547Z,4.60
2023-04-19T01:03:40.966Z,4.50
2023-04-19T01:06:11.846Z,4.47
2023-04-19T01:08:42.917Z,4.50
2023-04-19T01:11:10.727Z,4.40
2023-04-19T01:13:38.812Z,4.67
2023-04-19T01:16:07.882Z,4.80
2023-04-19T01:18:37.657Z,4.50
2023-04-19T01:21:08.694Z,4.70
2023-04-19T01:23:39.077Z,4.70
2023-04-19T01:26:09.989Z,4.47
2023-04-19T01:28:37.951Z,4.50
2023-04-19T01:31:05.913Z,5.40
2023-04-19T01:33:33.936Z,4.67
2023-04-19T01:36:01.723Z,4.73
2023-04-19T01:38:29.563Z,4.30
2023-04-19T01:40:58.786Z,4.53
2023-04-19T01:43:26.604Z,4.63
2023-04-19T01:45:54.738Z,4.90
2023-04-19T01:48:22.603Z,4.67
2023-04-19T01:50:50.457Z,4.27
2023-04-19T01:53:18.341Z,5.00
2023-04-19T01:55:46.188Z,4.83
2023-04-19T01:58:16.115Z,4.27
2023-04-19T02:00:47.972Z,4.30
2023-04-19T02:03:16.049Z,4.47
2023-04-19T02:05:44.026Z,4.33
2023-04-19T02:08:11.925Z,4.87
2023-04-19T02:10:39.806Z,4.90
2023-04-19T02:13:07.682Z,4.10
2023-04-19T02:15:37.966Z,4.43
2023-04-19T02:18:06.945Z,4.50
2023-04-19T02:20:34.993Z,4.80
2023-04-19T02:23:02.990Z,5.00
2023-04-19T02:25:31.288Z,4.47
2023-04-19T02:27:59.164Z,5.13
2023-04-19T02:30:27.005Z,4.80
2023-04-19T02:32:56.212Z,4.50
2023-04-19T02:35:27.067Z,4.87
2023-04-19T02:37:55.061Z,4.50
2023-04-19T02:40:23.768Z,5.10
2023-04-19T02:42:51.622Z,5.37
2023-04-19T02:45:19.463Z,5.10
2023-04-19T02:47:47.818Z,4.77
2023-04-19T02:50:18.158Z,5.03
2023-04-19T02:52:49.883Z,5.00
2023-04-19T02:55:18.575Z,4.67
2023-04-19T02:57:49.035Z,4.83
2023-04-19T03:00:17.773Z,4.57
2023-04-19T03:02:56.276Z,5.57
2023-04-19T03:05:25.773Z,5.07
2023-04-19T03:07:53.648Z,5.17
2023-04-19T03:10:21.474Z,4.87
2023-04-19T03:12:49.341Z,5.10
2023-04-19T03:15:17.432Z,4.90
2023-04-19T03:17:46.301Z,5.37
2023-04-19T03:20:15.042Z,5.80
2023-04-19T03:22:44.364Z,5.70
2023-04-19T03:25:13.595Z,5.07
2023-04-19T03:27:45.279Z,5.67
2023-04-19T03:30:15.717Z,5.47
2023-04-19T03:32:45.938Z,5.20
2023-04-19T03:35:14.738Z,6.17
2023-04-19T03:37:44.184Z,5.40
2023-04-19T03:40:12.853Z,5.67
2023-04-19T03:42:40.695Z,5.57
2023-04-19T03:45:15.201Z,6.03
2023-04-19T03:47:47.592Z,6.17
2023-04-19T03:50:16.065Z,6.30
2023-04-19T03:52:49.264Z,6.13
2023-04-19T03:55:18.154Z,6.73
2023-04-19T03:57:46.015Z,5.90
2023-04-19T04:00:20.692Z,6.23
2023-04-19T04:02:55.427Z,5.97
2023-04-19T04:05:23.738Z,6.03
2023-04-19T04:07:52.975Z,5.90
2023-04-19T04:10:22.143Z,6.40
2023-04-19T04:12:49.978Z,6.33
2023-04-19T04:15:25.010Z,6.97
2023-04-19T04:17:54.789Z,6.77
2023-04-19T04:20:22.887Z,6.83
2023-04-19T04:22:56.236Z,7.47
2023-04-19T04:25:25.943Z,7.90
2023-04-19T04:27:54.573Z,7.30
2023-04-19T04:30:27.255Z,8.13
2023-04-19T04:32:59.004Z,7.20
2023-04-19T04:35:30.065Z,7.40
2023-04-19T04:38:17.617Z,7.80
2023-04-19T04:40:53.569Z,8.00
2023-04-19T04:43:22.811Z,9.30
2023-04-19T04:45:51.164Z,8.40
2023-04-19T04:48:20.012Z,8.63
2023-04-19T04:50:47.941Z,10.37
2023-04-19T04:53:17.254Z,9.30
2023-04-19T04:55:46.874Z,8.90
2023-04-19T04:58:15.418Z,9.40
2023-04-19T05:00:53.118Z,9.83
2023-04-19T05:03:21.224Z,9.43
2023-04-19T05:05:55.384Z,9.70
2023-04-19T05:08:26.802Z,9.70
2023-04-19T05:10:58.835Z,10.03
2023-04-19T05:13:29.997Z,8.73
2023-04-19T05:15:57.928Z,10.60
2023-04-19T05:18:26.447Z,9.73
2023-04-19T05:20:54.362Z,10.70
2023-04-19T05:23:27.811Z,10.50
2023-04-19T05:25:55.789Z,9.80
2023-04-19T05:28:26.008Z,9.60
2023-04-19T05:31:02.430Z,9.80
2023-04-19T05:33:35.371Z,10.07
2023-04-19T05:36:03.223Z,10.23
2023-04-19T05:38:32.536Z,10.57
2023-04-19T05:41:03.287Z,10.03
2023-04-19T05:43:31.144Z,10.50
2023-04-19T05:45:59.601Z,10.40
2023-04-19T05:48:27.436Z,9.90
2023-04-19T05:51:06.873Z,11.53
2023-04-19T05:54:12.495Z,10.20
2023-04-19T05:56:41.611Z,11.23
2023-04-19T05:59:11.515Z,11.50
2023-04-19T06:01:39.563Z,10.80
2023-04-19T06:04:07.697Z,10.90
2023-04-19T06:06:38.100Z,11.10
2023-04-19T06:09:08.181Z,10.60
2023-04-19T06:11:43.161Z,10.60
2023-04-19T06:14:18.676Z,11.60
2023-04-19T06:16:47.195Z,10.90
2023-04-19T06:19:15.993Z,10.90
2023-04-19T06:21:44.264Z,10.50
2023-04-19T06:24:13.692Z,11.67
2023-04-19T06:26:41.838Z,10.80
2023-04-19T06:29:09.712Z,10.27
2023-04-19T06:31:38.303Z,11.33
2023-04-19T06:34:10.888Z,10.33
2023-04-19T06:36:38.793Z,10.93
2023-04-19T06:39:06.952Z,10.47
2023-04-19T06:41:36.165Z,11.00
2023-04-19T06:44:04.186Z,10.27
2023-04-19T06:46:32.529Z,10.10
2023-04-19T06:49:00.411Z,10.40
2023-04-19T06:51:28.233Z,10.53
2023-04-19T06:53:56.072Z,10.23
2023-04-19T06:56:45.488Z,9.83
2023-04-19T06:59:13.879Z,10.07
2023-04-19T07:01:41.921Z,10.13
2023-04-19T07:04:10.034Z,10.57
2023-04-19T07:06:39.266Z,9.50
2023-04-19T07:09:08.151Z,10.70
2023-04-19T07:11:36.041Z,10.47
2023-04-19T07:14:05.283Z,10.20
2023-04-19T07:16:33.884Z,9.77
2023-04-19T07:19:01.768Z,9.10
2023-04-19T07:21:33.327Z,8.93
2023-04-19T07:24:01.416Z,8.10
2023-04-19T07:26:29.742Z,8.13
2023-04-19T07:28:58.240Z,8.40
2023-04-19T07:31:28.353Z,8.80
2023-04-19T07:33:56.338Z,7.37
2023-04-19T07:36:25.313Z,7.63
2023-04-19T07:38:53.550Z,7.57
2023-04-19T07:41:21.750Z,7.57
2023-04-19T07:43:49.551Z,7.13
2023-04-19T07:46:17.475Z,7.40
2023-04-19T07:48:47.049Z,7.13
2023-04-19T07:51:17.391Z,7.13
2023-04-19T07:53:45.306Z,7.13
2023-04-19T07:56:13.367Z,6.97
2023-04-19T07:58:41.775Z,5.93
2023-04-19T08:01:09.860Z,6.70
2023-04-19T08:03:38.090Z,6.03
2023-04-19T08:06:08.846Z,5.90
2023-04-19T08:08:36.790Z,6.33
2023-04-19T08:11:06.206Z,6.40
2023-04-19T08:13:34.024Z,6.40
2023-04-19T08:18:33.276Z,5.17
2023-04-19T08:21:01.254Z,5.70
2023-04-19T08:23:38.027Z,6.20
2023-04-19T08:26:15.495Z,6.37
2023-04-19T08:28:43.345Z,5.67
2023-04-19T08:31:11.371Z,5.87
2023-04-19T08:33:39.240Z,6.40
2023-04-19T08:36:07.919Z,6.33
2023-04-19T08:38:38.926Z,5.57
2023-04-19T08:41:06.770Z,5.43
2023-04-19T08:43:36.859Z,5.70
2023-04-19T08:46:05.200Z,6.10
2023-04-19T08:48:36.754Z,6.00
2023-04-19T08:51:05.949Z,5.23
2023-04-19T08:53:35.561Z,5.00
2023-04-19T08:56:17.396Z,4.80
2023-04-19T08:59:04.145Z,4.70
2023-04-19T09:01:41.553Z,5.03
2023-04-19T09:04:34.682Z,4.80
2023-04-19T09:06:58.661Z,4.17
2023-04-19T09:11:59.699Z,5.60
2023-04-19T09:14:29.986Z,5.30
2023-04-19T09:17:13.502Z,4.93
2023-04-19T09:19:47.814Z,4.97
2023-04-19T09:22:16.409Z,5.47
2023-04-19T09:27:17.799Z,4.70
2023-04-19T09:29:54.062Z,6.17
2023-04-19T09:32:22.147Z,4.67
2023-04-19T09:34:54.835Z,4.37
2023-04-19T09:37:50.951Z,4.70
2023-04-19T09:40:23.681Z,4.70
2023-04-19T09:48:03.193Z,3.80
2023-04-19T09:50:31.856Z,4.00
2023-04-19T09:53:00.342Z,3.80
2023-04-19T09:55:29.877Z,3.87
2023-04-19T09:58:02.750Z,3.73
2023-04-19T10:00:35.998Z,4.10
2023-04-19T10:03:11.204Z,3.67
2023-04-19T10:05:40.569Z,4.10
2023-04-19T10:08:09.451Z,3.33
2023-04-19T10:10:42.074Z,4.00
2023-04-19T10:15:51.260Z,3.30
2023-04-19T10:18:21.678Z,4.20
2023-04-19T10:20:54.466Z,3.57
2023-04-19T10:23:23.239Z,3.27
2023-04-19T10:25:56.711Z,3.37
2023-04-19T10:28:26.218Z,3.00
2023-04-19T10:30:54.996Z,3.53
2023-04-19T10:33:27.763Z,3.67
2023-04-19T10:35:57.227Z,3.60
2023-04-19T10:38:38.573Z,3.70
2023-04-19T10:41:14.408Z,3.70
2023-04-19T10:43:48.048Z,4.00
2023-04-19T10:46:18.321Z,3.77
2023-04-19T10:48:55.393Z,3.80
2023-04-19T10:51:24.931Z,3.70
2023-04-19T10:54:00.208Z,3.43
2023-04-19T10:57:00.563Z,3.60
2023-04-19T10:59:30.906Z,3.47
2023-04-19T11:02:01.088Z,3.97
2023-04-19T11:05:01.654Z,3.90
2023-04-19T11:07:29.679Z,3.63
2023-04-19T11:09:57.716Z,3.77
2023-04-19T11:12:25.701Z,4.17
2023-04-19T11:14:57.498Z,4.50
2023-04-19T11:17:27.800Z,3.83
2023-04-19T11:19:56.822Z,3.90
2023-04-19T11:22:32.320Z,3.70
2023-04-19T11:25:07.171Z,4.17
2023-04-19T11:27:35.166Z,3.47
2023-04-19T11:30:06.794Z,3.70
2023-04-19T11:32:35.089Z,4.30
2023-04-19T11:35:08.232Z,3.20
2023-04-19T11:37:36.709Z,3.60
2023-04-19T11:40:06.489Z,3.33
2023-04-19T11:42:34.979Z,3.67
2023-04-19T11:45:03.266Z,3.60
2023-04-19T11:47:33.569Z,3.13
2023-04-19T11:50:32.048Z,3.00
2023-04-19T11:53:00.007Z,3.07
2023-04-19T11:55:27.905Z,3.10
2023-04-19T11:57:56.579Z,2.40
2023-04-19T12:00:29.307Z,3.30
2023-04-19T12:02:58.784Z,3.10
2023-04-19T12:05:27.096Z,2.77
2023-04-19T12:08:04.975Z,2.80
2023-04-19T12:10:34.852Z,2.53
2023-04-19T12:13:03.071Z,2.87
2023-04-19T12:15:45.902Z,2.30
2023-04-19T12:18:15.793Z,2.53
2023-04-19T12:20:45.930Z,2.30
2023-04-19T12:23:15.807Z,2.47
2023-04-19T12:25:44.409Z,2.57
2023-04-19T12:28:12.397Z,2.37
2023-04-19T12:30:40.857Z,2.27
2023-04-19T12:33:09.546Z,1.90
2023-04-19T12:35:39.249Z,2.00
2023-04-19T12:38:10.432Z,2.00
2023-04-19T12:40:38.369Z,2.20
2023-04-19T12:43:07.349Z,1.70
2023-04-19T12:45:35.258Z,1.70
2023-04-19T12:48:03.233Z,2.00
2023-04-19T12:50:31.314Z,1.80
2023-04-19T12:53:00.499Z,1.83
2023-04-19T12:55:28.400Z,1.70
2023-04-19T12:57:56.318Z,1.47
2023-04-19T13:00:24.666Z,1.80
2023-04-19T13:02:52.704Z,1.50
2023-04-19T13:05:20.725Z,1.40
2023-04-19T13:07:48.621Z,1.33
2023-04-19T13:10:18.541Z,1.57
2023-04-19T13:12:46.398Z,1.60
2023-04-19T13:15:14.263Z,1.40
2023-04-19T13:17:42.774Z,1.40
2023-04-19T13:20:11.500Z,1.60
2023-04-19T13:22:39.322Z,1.70
2023-04-19T13:25:08.137Z,1.80
2023-04-19T13:27:37.650Z,1.90
2023-04-19T13:30:06.201Z,1.60
2023-04-19T13:32:34.239Z,1.43
2023-04-19T13:35:02.091Z,1.37
2023-04-19T13:37:30.129Z,1.50
2023-04-19T13:40:10.673Z,1.37
2023-04-19T13:42:44.345Z,1.30
2023-04-19T13:45:12.980Z,1.40
2023-04-19T13:47:40.835Z,1.50
2023-04-19T13:50:09.590Z,1.40
2023-04-19T13:52:37.393Z,1.53
2023-04-19T13:55:05.837Z,1.57
2023-04-19T13:57:34.829Z,1.50
2023-04-19T14:00:04.384Z,1.70
2023-04-19T14:02:35.055Z,1.50
2023-04-19T14:05:04.623Z,1.40
2023-04-19T14:07:32.562Z,1.70
2023-04-19T14:10:04.384Z,1.80
2023-04-19T14:12:32.383Z,1.87
2023-04-19T14:15:00.383Z,1.50
2023-04-19T14:17:30.050Z,1.50
2023-04-19T14:20:00.963Z,1.40
2023-04-19T14:22:28.822Z,1.50
2023-04-19T14:24:56.633Z,1.70
2023-04-19T14:27:26.255Z,1.60
2023-04-19T14:29:54.177Z,1.77
2023-04-19T14:32:26.559Z,1.43
2023-04-19T14:34:56.617Z,1.53
2023-04-19T14:37:25.323Z,1.50
2023-04-19T14:39:53.332Z,1.60
2023-04-19T14:42:22.852Z,1.50
2023-04-19T14:44:52.672Z,1.67
2023-04-19T14:47:21.119Z,1.33
2023-04-19T14:49:49.092Z,1.60
2023-04-19T14:52:18.395Z,1.40
2023-04-19T14:54:46.449Z,1.50
2023-04-19T14:57:14.582Z,1.60
2023-04-19T14:59:42.444Z,1.70
2023-04-19T15:02:13.261Z,2.10
2023-04-19T15:04:41.854Z,1.63
2023-04-19T15:07:10.028Z,1.70
2023-04-19T15:09:40.373Z,1.77
2023-04-19T15:12:08.316Z,1.90
2023-04-19T15:14:36.307Z,1.90
2023-04-19T15:17:04.154Z,1.57
2023-04-19T15:19:32.397Z,1.90
2023-04-19T15:22:00.407Z,2.50
2023-04-19T15:24:28.326Z,1.90
2023-04-19T15:26:58.862Z,2.10
2023-04-19T15:29:26.700Z,1.83
2023-04-19T15:31:54.645Z,1.70
2023-04-19T15:34:22.619Z,1.90
2023-04-19T15:36:50.862Z,1.87
2023-04-19T15:39:18.894Z,2.40
2023-04-19T15:41:46.765Z,1.77
2023-04-19T15:44:15.935Z,1.97
2023-04-19T15:46:43.846Z,1.83
2023-04-19T15:49:11.774Z,2.23
2023-04-19T15:51:39.922Z,1.73
2023-04-19T15:54:07.960Z,1.87
2023-04-19T15:56:35.839Z,1.77
2023-04-19T15:59:04.115Z,2.23
2023-04-19T16:01:33.419Z,1.80
2023-04-19T16:04:01.481Z,1.60
2023-04-19T16:06:29.626Z,1.73
2023-04-19T16:08:57.618Z,1.63
2023-04-19T16:11:25.579Z,1.90
2023-04-19T16:13:53.534Z,2.10
2023-04-19T16:16:21.439Z,1.90
2023-04-19T16:18:50.998Z,1.60
2023-04-19T16:21:18.867Z,1.50
2023-04-19T16:23:46.702Z,1.90
2023-04-19T16:26:14.603Z,1.90
2023-04-19T16:28:42.414Z,2.03
2023-04-19T16:31:10.254Z,1.90
2023-04-19T16:33:38.064Z,1.50
2023-04-19T16:36:07.533Z,2.17
2023-04-19T16:38:35.804Z,2.27
2023-04-19T16:41:05.640Z,2.23
2023-04-19T16:43:33.548Z,6.73
2023-04-19T16:46:01.845Z,3.33
2023-04-19T16:48:30.321Z,5.90
2023-04-19T16:50:58.204Z,4.00
2023-04-19T16:53:27.507Z,6.67
2023-04-19T16:55:56.686Z,2.77
2023-04-19T16:58:24.687Z,2.30
2023-04-19T17:00:52.554Z,6.23
2023-04-19T17:03:20.554Z,4.60
2023-04-19T17:05:48.570Z,5.30
2023-04-19T17:08:16.463Z,4.23
2023-04-19T17:10:45.726Z,7.87
2023-04-19T17:13:13.604Z,2.70
2023-04-19T17:15:41.672Z,3.57
2023-04-19T17:18:09.571Z,6.47
2023-04-19T17:20:37.444Z,8.40
2023-04-19T17:23:05.264Z,6.90
2023-04-19T17:25:33.116Z,6.30
2023-04-19T17:28:02.479Z,3.43
2023-04-19T17:30:30.412Z,2.30
2023-04-19T17:32:58.336Z,2.10
2023-04-19T17:35:27.266Z,2.50
2023-04-19T17:37:55.202Z,3.00
2023-04-19T17:40:23.022Z,2.50
2023-04-19T17:42:50.841Z,2.40
2023-04-19T17:45:20.215Z,2.03
2023-04-19T17:47:48.081Z,2.53
2023-04-19T17:50:16.034Z,2.37
2023-04-19T17:52:43.851Z,2.47
2023-04-19T17:55:13.125Z,2.30
2023-04-19T17:57:41.209Z,2.33
2023-04-19T18:00:11.842Z,2.40
2023-04-19T18:02:41.665Z,2.23
2023-04-19T18:05:10.299Z,2.60
2023-04-19T18:07:38.151Z,2.37
2023-04-19T18:10:06.904Z,2.20
2023-04-19T18:12:34.776Z,2.03
2023-04-19T18:15:02.781Z,2.10
2023-04-19T18:17:31.325Z,2.30
2023-04-19T18:20:02.030Z,2.30
2023-04-19T18:22:32.713Z,2.20
2023-04-19T18:25:00.558Z,2.70
2023-04-19T18:27:29.693Z,2.17
2023-04-19T18:29:59.652Z,2.30
2023-04-19T18:32:28.721Z,2.63
2023-04-19T18:34:56.729Z,2.40
2023-04-19T18:37:26.039Z,2.50
2023-04-19T18:39:53.910Z,2.53
2023-04-19T18:42:22.047Z,2.40
2023-04-19T18:44:54.363Z,2.53
2023-04-19T18:47:22.862Z,2.77
2023-04-19T18:50:03.602Z,2.10
2023-04-19T18:52:39.343Z,2.40
2023-04-19T18:55:12.058Z,2.20
2023-04-19T18:57:39.957Z,2.10
2023-04-19T19:00:11.435Z,2.50
2023-04-19T19:02:41.060Z,2.00
2023-04-19T19:05:13.107Z,2.43
2023-04-19T19:07:43.706Z,2.27
2023-04-19T19:10:18.552Z,2.70
2023-04-19T19:12:50.051Z,2.63
2023-04-19T19:15:18.418Z,2.10
2023-04-19T19:17:49.839Z,2.77
2023-04-19T19:20:18.869Z,2.50
2023-04-19T19:22:48.362Z,2.20
2023-04-19T19:25:16.421Z,2.60
2023-04-19T19:27:58.153Z,2.53
2023-04-19T19:30:33.857Z,3.27
2023-04-19T19:33:02.782Z,3.00
2023-04-19T19:35:30.795Z,2.80
2023-04-19T19:38:00.130Z,2.30
2023-04-19T19:40:31.041Z,2.57
2023-04-19T19:43:00.636Z,2.47
2023-04-19T19:45:29.342Z,2.87
2023-04-19T19:47:59.105Z,2.60
2023-04-19T19:53:01.784Z,2.40
2023-04-19T19:55:30.160Z,2.80
2023-04-19T20:03:00.388Z,2.07
2023-04-19T20:05:28.860Z,3.03
2023-04-19T20:08:08.552Z,2.60
2023-04-19T20:10:38.169Z,2.10
2023-04-19T20:13:06.976Z,2.77
2023-04-19T20:15:35.292Z,2.87
2023-04-19T20:18:03.489Z,2.90
2023-04-19T20:20:31.467Z,2.47
2023-04-19T20:22:59.415Z,3.20
2023-04-19T20:25:28.679Z,3.00
2023-04-19T20:27:56.525Z,2.90
2023-04-19T20:30:24.655Z,2.63
2023-04-19T20:32:52.761Z,2.80
2023-04-19T20:35:21.143Z,2.57
2023-04-19T20:37:49.035Z,2.50
2023-04-19T20:40:17.807Z,2.40
2023-04-19T20:42:47.324Z,2.90
2023-04-19T20:45:15.193Z,2.50
2023-04-19T20:47:43.246Z,3.27
2023-04-19T20:50:12.020Z,2.80
2023-04-19T20:52:42.773Z,3.17
2023-04-19T20:55:11.120Z,3.27
2023-04-19T20:57:38.976Z,2.77
2023-04-19T21:00:12.875Z,2.53
2023-04-19T21:02:40.831Z,2.60
2023-04-19T21:05:09.423Z,3.13
2023-04-19T21:07:37.731Z,3.03
2023-04-19T21:10:06.858Z,3.20
2023-04-19T21:12:35.011Z,3.30
2023-04-19T21:15:04.866Z,2.57
2023-04-19T21:17:34.139Z,3.57
2023-04-19T21:20:02.271Z,3.00
2023-04-19T21:22:30.380Z,2.97
2023-04-19T21:24:58.373Z,3.50
2023-04-19T21:27:26.274Z,3.07
2023-04-19T21:29:54.121Z,2.77
2023-04-19T21:32:22.820Z,3.33
2023-04-19T21:34:52.117Z,3.40
2023-04-19T21:37:20.872Z,3.50
2023-04-19T21:39:49.125Z,2.73
2023-04-19T21:42:17.060Z,3.20
2023-04-19T21:44:44.915Z,3.10
2023-04-19T21:47:13.678Z,2.77
2023-04-19T21:49:41.952Z,3.03
2023-04-19T21:52:11.448Z,2.93
2023-04-19T21:54:39.296Z,2.90
2023-04-19T21:57:07.161Z,2.73
2023-04-19T21:59:36.095Z,2.90
2023-04-19T22:02:04.299Z,2.83
2023-04-19T22:04:32.389Z,3.00
2023-04-19T22:07:02.713Z,2.87
2023-04-19T22:09:32.322Z,2.57
2023-04-19T22:12:00.953Z,2.50
2023-04-19T22:14:30.724Z,3.10
2023-04-19T22:16:59.108Z,2.80
2023-04-19T22:19:27.004Z,2.90
2023-04-19T22:21:55.327Z,3.30
2023-04-19T22:24:23.446Z,2.70
2023-04-19T22:26:53.080Z,2.77
2023-04-19T22:29:21.438Z,2.80
2023-04-19T22:31:49.782Z,2.90
2023-04-19T22:34:17.689Z,2.80
2023-04-19T22:36:45.649Z,3.17
2023-04-19T22:39:13.708Z,3.00
2023-04-19T22:41:41.514Z,2.60
2023-04-19T22:44:10.699Z,4.57
2023-04-19T22:46:38.948Z,3.10
2023-04-19T22:49:07.801Z,2.73
2023-04-19T22:51:36.653Z,2.67
2023-04-19T22:54:04.860Z,3.20
2023-04-19T22:56:34.096Z,3.13
2023-04-19T22:59:01.914Z,3.40
2023-04-19T23:01:31.207Z,2.83
2023-04-19T23:03:59.045Z,3.07
2023-04-19T23:06:29.126Z,2.87
2023-04-19T23:08:57.326Z,2.87
2023-04-19T23:11:25.216Z,2.80
2023-04-19T23:13:54.089Z,3.00
2023-04-19T23:16:22.724Z,3.20
2023-04-19T23:18:51.980Z,3.03
2023-04-19T23:21:19.859Z,2.80
2023-04-19T23:23:47.746Z,3.20
2023-04-19T23:26:15.640Z,2.80
2023-04-19T23:28:43.462Z,3.20
2023-04-19T23:31:11.662Z,2.67
2023-04-19T23:33:39.585Z,3.10
2023-04-19T23:36:09.435Z,3.30
2023-04-19T23:38:37.331Z,2.60
2023-04-19T23:41:05.153Z,2.90
2023-04-19T23:43:32.985Z,3.00
2023-04-19T23:46:01.293Z,2.90
2023-04-19T23:48:29.562Z,2.83
2023-04-19T23:50:57.448Z,3.57
2023-04-19T23:53:26.659Z,3.20
2023-04-19T23:55:54.548Z,3.10
2023-04-19T23:58:22.444Z,2.97
